CMA CGM Africa Three — C6YS8 — position and weather

sailwx.info

Track history (hours):
 
Tides and Currents Weather Stations Pressure Air Temp Water Temp Dewpoint Dewpoint Depression Visibility Wind Speed Wind Dir Waves Ship Positions

CMA CGM Africa Three

Last reported at 2018-Feb-07 01:02 UTC. Time now 2018-Feb-18 18:23 UTC.
Position N 35°57' W 005°34'.
Warning: this ship's position is 11 days out of date.

Length 228 m; draft 10.8 m.

Type: Ship (hazmat cat A). MMSI: 311044200.

Date/timePositionNaut miles runAvg speedWind from/ knotsBaromVisibWave heightAir tempDewpointWater temp
2018-Feb-07 01:02N 35°57' W 005°34'213.9
2018-Feb-07 00:53N 35°57' W 005°32'12 0.3
2018-Feb-05 06:59N 36°08' W 005°25'0 0.0
2018-Feb-05 06:23N 36°08' W 005°25'0 0.0
2018-Feb-05 05:25N 36°08' W 005°25'0 0.0
2018-Feb-05 04:57N 36°08' W 005°25'0 0.0
2018-Feb-05 04:30N 36°08' W 005°25'0 0.0
2018-Feb-05 04:00N 36°08' W 005°25'0 0.0
2018-Feb-05 03:27N 36°08' W 005°25'0 0.0
2018-Feb-05 02:57N 36°08' W 005°25'0 0.0
2018-Feb-05 02:21N 36°08' W 005°25'0 0.0
2018-Feb-05 01:57N 36°08' W 005°25'0 0.0
2018-Feb-05 01:27N 36°08' W 005°25'0 0.0
2018-Feb-05 00:50N 36°08' W 005°25'0 0.0
2018-Feb-05 00:26N 36°08' W 005°25'0 0.0
2018-Feb-04 23:57N 36°08' W 005°25'0 0.0
2018-Feb-04 23:28N 36°08' W 005°25'0 0.0
2018-Feb-04 22:57N 36°08' W 005°25'4 3.2
2018-Feb-04 21:47N 36°05' W 005°23'1 5.4
2018-Feb-04 21:30N 36°05' W 005°21'2 4.7
2018-Feb-04 21:00N 36°04' W 005°18'10 0.4
2018-Feb-03 17:54N 36°07' W 005°06'1 1.2
2018-Feb-03 17:27N 36°07' W 005°07'610.4
2018-Feb-03 16:55N 36°02' W 005°11'1517.2
2018-Feb-03 16:00N 35°57' W 005°29'24312.0
2018-Feb-02 19:46N 37°58' W 009°53'1814.3
2018-Feb-02 18:32N 38°15' W 009°59'214.1
2018-Feb-02 18:25N 38°17' W 009°59'614.1
2018-Feb-02 18:00N 38°22' W 010°01'714.1
2018-Feb-02 17:30N 38°29' W 010°04'713.9
2018-Feb-02 17:00N 38°36' W 010°06'714.0
2018-Feb-02 16:30N 38°43' W 010°07'1413.9
2018-Feb-02 15:30N 38°57' W 010°06'1413.7
2018-Feb-02 14:30N 39°10' W 010°07'714.0
2018-Feb-02 13:59N 39°18' W 010°08'714.2
2018-Feb-02 13:28N 39°25' W 010°06'55114.1
2018-Jan-31 22:26N 46°56' W 002°52'2416.6
2018-Jan-31 21:00N 47°08' W 002°23'713.1
2018-Jan-31 20:30N 47°13' W 002°17'714.0
2018-Jan-31 20:01N 47°18' W 002°09'0 0.2
2018-Jan-31 19:30N 47°18' W 002°09'0 0.0
2018-Jan-31 19:00N 47°18' W 002°09'0 0.0
2018-Jan-31 18:25N 47°18' W 002°09'0 0.0
2018-Jan-31 17:59N 47°18' W 002°09'0 0.0
2018-Jan-31 17:29N 47°18' W 002°09'0 0.0
2018-Jan-31 16:59N 47°18' W 002°09'0 0.0
2018-Jan-31 16:29N 47°18' W 002°09'0 0.0
2018-Jan-31 15:59N 47°18' W 002°09'0 0.0
2018-Jan-31 15:29N 47°18' W 002°09'0 0.0
2018-Jan-31 15:00N 47°18' W 002°09'0 0.0
2018-Jan-31 14:28N 47°18' W 002°09'0 0.0
2018-Jan-31 12:59N 47°18' W 002°09'0 0.0
2018-Jan-31 12:29N 47°18' W 002°09'0 0.0
2018-Jan-31 11:59N 47°18' W 002°09'0 0.0
2018-Jan-31 11:29N 47°18' W 002°09'0 0.0
2018-Jan-31 10:55N 47°18' W 002°09'0 0.0
2018-Jan-31 10:30N 47°18' W 002°09'0 0.0
2018-Jan-31 09:57N 47°18' W 002°09'0 0.0
2018-Jan-31 09:30N 47°18' W 002°09'0 0.0
2018-Jan-31 09:00N 47°18' W 002°09'0 0.0
2018-Jan-31 08:28N 47°18' W 002°09'0 0.0
2018-Jan-31 08:00N 47°18' W 002°09'0 0.0
2018-Jan-31 07:28N 47°18' W 002°09'0 0.0
2018-Jan-31 06:58N 47°18' W 002°09'0 0.0
2018-Jan-31 06:25N 47°18' W 002°09'0 0.0
2018-Jan-31 05:58N 47°18' W 002°09'0 0.0
2018-Jan-31 05:25N 47°18' W 002°09'0 0.0
2018-Jan-31 04:59N 47°18' W 002°09'0 0.0
2018-Jan-31 04:30N 47°18' W 002°09'0 0.0
2018-Jan-31 04:01N 47°18' W 002°09'0 0.2
2018-Jan-31 03:30N 47°18' W 002°09'2 3.9
2018-Jan-31 03:01N 47°16' W 002°11'611.5
2018-Jan-31 02:31N 47°12' W 002°17'611.5
2018-Jan-31 02:00N 47°07' W 002°21'4 7.9
2018-Jan-31 01:30N 47°05' W 002°26'713.8
2018-Jan-31 01:00N 47°01' W 002°35'1616.1
2018-Jan-31 00:00N 46°60' W 002°58'816.5
2018-Jan-30 23:30N 46°60' W 003°10'815.8
2018-Jan-30 22:58N 47°01' W 003°22'816.1
2018-Jan-30 22:30N 47°05' W 003°32'1615.9
2018-Jan-30 21:30N 47°14' W 003°51'1015.8
2018-Jan-30 20:54N 47°19' W 004°03'615.7
2018-Jan-30 20:30N 47°23' W 004°10'1115.6
2018-Jan-30 19:48N 47°29' W 004°24'915.9
2018-Jan-30 19:14N 47°34' W 004°35'415.8
2018-Jan-30 18:59N 47°36' W 004°40'816.3
2018-Jan-30 18:30N 47°40' W 004°49'816.9
2018-Jan-30 18:00N 47°45' W 004°60'917.2
2018-Jan-30 17:31N 47°50' W 005°10'917.6
2018-Jan-30 17:00N 47°55' W 005°21'1817.3
2018-Jan-30 15:58N 48°09' W 005°37'1717.0
2018-Jan-30 14:58N 48°24' W 005°51'4212.0
2018-Jan-30 11:30N 49°01' W 005°25'5815.3
2018-Jan-30 07:41N 49°31' W 004°08'315.5
2018-Jan-30 07:28N 49°33' W 004°04'1014.9
2018-Jan-30 06:47N 49°38' W 003°50'614.5
2018-Jan-30 06:20N 49°41' W 003°42'514.1
2018-Jan-30 06:00N 49°44' W 003°35'713.8
2018-Jan-30 05:30N 49°47' W 003°26'713.5
2018-Jan-30 05:00N 49°50' W 003°17'713.5
2018-Jan-30 04:28N 49°54' W 003°07'613.8
2018-Jan-30 04:00N 49°57' W 002°59'714.2
2018-Jan-30 03:31N 49°60' W 002°48'714.7
2018-Jan-30 03:00N 50°01' W 002°37'815.6
2018-Jan-30 02:31N 50°03' W 002°25'916.5
2018-Jan-30 01:58N 50°01' W 002°11'817.5
2018-Jan-30 01:30N 49°59' W 001°59'918.2
2018-Jan-30 01:00N 49°57' W 001°45'918.3
2018-Jan-30 00:30N 49°54' W 001°32'918.7
2018-Jan-30 00:00N 49°51' W 001°19'918.8
2018-Jan-29 23:30N 49°47' W 001°05'917.6
2018-Jan-29 23:00N 49°44' W 000°52'816.5
2018-Jan-29 22:30N 49°41' W 000°41'815.7
2018-Jan-29 22:00N 49°38' W 000°30'815.2
2018-Jan-29 21:30N 49°35' W 000°19'714.6
2018-Jan-29 21:00N 49°32' W 000°08'611.9
2018-Jan-29 20:30N 49°30' E 000°00'611.7
2018-Jan-29 20:00N 49°28' E 000°08'1 2.7
2018-Jan-29 19:30N 49°27' E 000°10'0 0.0
2018-Jan-29 18:58N 49°27' E 000°10'0 0.0
2018-Jan-29 18:28N 49°27' E 000°10'0 0.0
2018-Jan-29 17:58N 49°27' E 000°10'0 0.0
2018-Jan-29 17:27N 49°27' E 000°10'0 0.0
2018-Jan-29 17:00N 49°27' E 000°10'0 0.0
2018-Jan-29 16:30N 49°27' E 000°10'0 0.0
2018-Jan-29 16:00N 49°27' E 000°10'0 0.0
2018-Jan-29 15:29N 49°27' E 000°10'0 0.0
2018-Jan-29 15:00N 49°27' E 000°10'0 0.0
2018-Jan-29 14:29N 49°27' E 000°10'0 0.0
2018-Jan-29 14:00N 49°27' E 000°10'0 0.0
2018-Jan-29 13:29N 49°27' E 000°10'0 0.0
2018-Jan-29 13:00N 49°27' E 000°10'0 0.0
2018-Jan-29 12:28N 49°27' E 000°10'0 0.0
2018-Jan-29 12:00N 49°27' E 000°10'0 0.0
2018-Jan-29 11:29N 49°27' E 000°10'0 0.0
2018-Jan-29 10:59N 49°27' E 000°10'0 0.0
2018-Jan-29 10:29N 49°27' E 000°10'0 0.0
2018-Jan-29 09:58N 49°27' E 000°10'0 0.0
2018-Jan-29 09:28N 49°27' E 000°10'0 0.0
2018-Jan-29 08:58N 49°27' E 000°10'0 0.0
2018-Jan-29 08:30N 49°27' E 000°10'0 0.0
2018-Jan-29 08:00N 49°27' E 000°10'0 0.0
2018-Jan-29 07:30N 49°27' E 000°10'0 0.0
2018-Jan-29 07:00N 49°27' E 000°10'0 0.0
2018-Jan-29 06:30N 49°27' E 000°10'0 0.0
2018-Jan-29 05:59N 49°27' E 000°10'0 0.0
2018-Jan-29 05:29N 49°27' E 000°10'0 0.0
2018-Jan-29 04:59N 49°27' E 000°10'0 0.0
2018-Jan-29 04:29N 49°27' E 000°10'0 0.0
2018-Jan-29 03:59N 49°27' E 000°10'0 0.0
2018-Jan-29 03:29N 49°27' E 000°10'0 0.0
2018-Jan-29 02:59N 49°27' E 000°10'0 0.0
2018-Jan-29 02:29N 49°27' E 000°10'0 0.0
2018-Jan-29 01:59N 49°27' E 000°10'0 0.0
2018-Jan-29 01:29N 49°27' E 000°10'0 0.0
2018-Jan-29 00:59N 49°27' E 000°10'0 0.0
2018-Jan-29 00:29N 49°27' E 000°10'0 0.0
2018-Jan-28 23:58N 49°27' E 000°10'1 2.6
2018-Jan-28 23:30N 49°27' E 000°09'5 9.2
2018-Jan-28 23:01N 49°30' E 000°02'612.1
2018-Jan-28 22:30N 49°31' W 000°07'3 5.9
2018-Jan-28 21:59N 49°33' W 000°10'0 0.2
2018-Jan-28 21:31N 49°33' W 000°10'0 0.1
2018-Jan-28 20:59N 49°33' W 000°10'0 0.0
2018-Jan-28 20:28N 49°33' W 000°10'0 0.0
2018-Jan-28 19:58N 49°33' W 000°10'0 0.0
2018-Jan-28 19:30N 49°33' W 000°10'0 0.1
2018-Jan-28 19:00N 49°33' W 000°10'0 0.0
2018-Jan-28 18:29N 49°33' W 000°10'0 0.0
2018-Jan-28 17:59N 49°33' W 000°10'0 0.0
2018-Jan-28 17:29N 49°33' W 000°10'0 0.0
2018-Jan-28 16:59N 49°33' W 000°10'0 0.0
2018-Jan-28 16:29N 49°33' W 000°10'0 0.0
2018-Jan-28 15:59N 49°33' W 000°10'0 0.0
2018-Jan-28 15:26N 49°33' W 000°10'0 0.1
2018-Jan-28 14:59N 49°33' W 000°10'0 0.0
2018-Jan-28 14:26N 49°33' W 000°10'0 0.1
2018-Jan-28 13:58N 49°33' W 000°10'0 0.0
2018-Jan-28 13:30N 49°33' W 000°10'0 0.2
2018-Jan-28 12:57N 49°33' W 000°10'0 0.1
2018-Jan-28 12:30N 49°33' W 000°10'0 0.0
2018-Jan-28 12:00N 49°33' W 000°10'0 0.2
2018-Jan-28 11:30N 49°33' W 000°10'0 0.0
2018-Jan-28 11:00N 49°33' W 000°10'0 0.1
2018-Jan-28 10:30N 49°33' W 000°10'0 0.0
2018-Jan-28 10:00N 49°33' W 000°10'0 0.0
2018-Jan-28 09:30N 49°33' W 000°10'0 0.1
2018-Jan-28 09:00N 49°33' W 000°10'0 0.0
2018-Jan-28 08:30N 49°33' W 000°10'0 0.1
2018-Jan-28 07:58N 49°33' W 000°10'0 0.0
2018-Jan-28 07:28N 49°33' W 000°10'0 0.0
2018-Jan-28 06:58N 49°33' W 000°10'0 0.0
2018-Jan-28 06:30N 49°33' W 000°10'1 1.6
2018-Jan-28 06:00N 49°34' W 000°09'4 7.8
2018-Jan-28 05:30N 49°35' W 000°15'3 6.3
2018-Jan-28 05:00N 49°38' W 000°14'4 8.2
2018-Jan-28 04:30N 49°42' W 000°12'4 8.3
2018-Jan-28 04:00N 49°46' W 000°10'4 8.7
2018-Jan-28 03:30N 49°51' W 000°09'4 8.7
2018-Jan-28 03:00N 49°55' W 000°09'5 9.0
2018-Jan-28 02:30N 49°59' W 000°08'611.1
2018-Jan-28 02:00N 50°05' W 000°07'714.6
2018-Jan-28 01:30N 50°12' W 000°05'  
Track history (hours):
 
Tides and Currents Weather Stations Pressure Air Temp Water Temp Dewpoint Dewpoint Depression Visibility Wind Speed Wind Dir Waves Ship Positions

CMA CGM Africa Three

Last reported at 2018-Feb-07 01:02 UTC. Time now 2018-Feb-18 18:23 UTC.
Position N 35°57' W 005°34'.
Warning: this ship's position is 11 days out of date.

Length 228 m; draft 10.8 m.

Type: Ship (hazmat cat A). MMSI: 311044200.

Date/timePositionNaut miles runAvg speedWind from/ knotsBaromVisibWave heightAir tempDewpointWater temp
2018-Feb-07 01:02N 35°57' W 005°34'213.9
2018-Feb-07 00:53N 35°57' W 005°32'12 0.3
2018-Feb-05 06:59N 36°08' W 005°25'0 0.0
2018-Feb-05 06:23N 36°08' W 005°25'0 0.0
2018-Feb-05 05:25N 36°08' W 005°25'0 0.0
2018-Feb-05 04:57N 36°08' W 005°25'0 0.0
2018-Feb-05 04:30N 36°08' W 005°25'0 0.0
2018-Feb-05 04:00N 36°08' W 005°25'0 0.0
2018-Feb-05 03:27N 36°08' W 005°25'0 0.0
2018-Feb-05 02:57N 36°08' W 005°25'0 0.0
2018-Feb-05 02:21N 36°08' W 005°25'0 0.0
2018-Feb-05 01:57N 36°08' W 005°25'0 0.0
2018-Feb-05 01:27N 36°08' W 005°25'0 0.0
2018-Feb-05 00:50N 36°08' W 005°25'0 0.0
2018-Feb-05 00:26N 36°08' W 005°25'0 0.0
2018-Feb-04 23:57N 36°08' W 005°25'0 0.0
2018-Feb-04 23:28N 36°08' W 005°25'0 0.0
2018-Feb-04 22:57N 36°08' W 005°25'4 3.2
2018-Feb-04 21:47N 36°05' W 005°23'1 5.4
2018-Feb-04 21:30N 36°05' W 005°21'2 4.7
2018-Feb-04 21:00N 36°04' W 005°18'10 0.4
2018-Feb-03 17:54N 36°07' W 005°06'1 1.2
2018-Feb-03 17:27N 36°07' W 005°07'610.4
2018-Feb-03 16:55N 36°02' W 005°11'1517.2
2018-Feb-03 16:00N 35°57' W 005°29'24312.0
2018-Feb-02 19:46N 37°58' W 009°53'1814.3
2018-Feb-02 18:32N 38°15' W 009°59'214.1
2018-Feb-02 18:25N 38°17' W 009°59'614.1
2018-Feb-02 18:00N 38°22' W 010°01'714.1
2018-Feb-02 17:30N 38°29' W 010°04'713.9
2018-Feb-02 17:00N 38°36' W 010°06'714.0
2018-Feb-02 16:30N 38°43' W 010°07'1413.9
2018-Feb-02 15:30N 38°57' W 010°06'1413.7
2018-Feb-02 14:30N 39°10' W 010°07'714.0
2018-Feb-02 13:59N 39°18' W 010°08'714.2
2018-Feb-02 13:28N 39°25' W 010°06'55114.1
2018-Jan-31 22:26N 46°56' W 002°52'2416.6
2018-Jan-31 21:00N 47°08' W 002°23'713.1
2018-Jan-31 20:30N 47°13' W 002°17'714.0
2018-Jan-31 20:01N 47°18' W 002°09'0 0.2
2018-Jan-31 19:30N 47°18' W 002°09'0 0.0
2018-Jan-31 19:00N 47°18' W 002°09'0 0.0
2018-Jan-31 18:25N 47°18' W 002°09'0 0.0
2018-Jan-31 17:59N 47°18' W 002°09'0 0.0
2018-Jan-31 17:29N 47°18' W 002°09'0 0.0
2018-Jan-31 16:59N 47°18' W 002°09'0 0.0
2018-Jan-31 16:29N 47°18' W 002°09'0 0.0
2018-Jan-31 15:59N 47°18' W 002°09'0 0.0
2018-Jan-31 15:29N 47°18' W 002°09'0 0.0
2018-Jan-31 15:00N 47°18' W 002°09'0 0.0
2018-Jan-31 14:28N 47°18' W 002°09'0 0.0
2018-Jan-31 12:59N 47°18' W 002°09'0 0.0
2018-Jan-31 12:29N 47°18' W 002°09'0 0.0
2018-Jan-31 11:59N 47°18' W 002°09'0 0.0
2018-Jan-31 11:29N 47°18' W 002°09'0 0.0
2018-Jan-31 10:55N 47°18' W 002°09'0 0.0
2018-Jan-31 10:30N 47°18' W 002°09'0 0.0
2018-Jan-31 09:57N 47°18' W 002°09'0 0.0
2018-Jan-31 09:30N 47°18' W 002°09'0 0.0
2018-Jan-31 09:00N 47°18' W 002°09'0 0.0
2018-Jan-31 08:28N 47°18' W 002°09'0 0.0
2018-Jan-31 08:00N 47°18' W 002°09'0 0.0
2018-Jan-31 07:28N 47°18' W 002°09'0 0.0
2018-Jan-31 06:58N 47°18' W 002°09'0 0.0
2018-Jan-31 06:25N 47°18' W 002°09'0 0.0
2018-Jan-31 05:58N 47°18' W 002°09'0 0.0
2018-Jan-31 05:25N 47°18' W 002°09'0 0.0
2018-Jan-31 04:59N 47°18' W 002°09'0 0.0
2018-Jan-31 04:30N 47°18' W 002°09'0 0.0
2018-Jan-31 04:01N 47°18' W 002°09'0 0.2
2018-Jan-31 03:30N 47°18' W 002°09'2 3.9
2018-Jan-31 03:01N 47°16' W 002°11'611.5
2018-Jan-31 02:31N 47°12' W 002°17'611.5
2018-Jan-31 02:00N 47°07' W 002°21'4 7.9
2018-Jan-31 01:30N 47°05' W 002°26'713.8
2018-Jan-31 01:00N 47°01' W 002°35'1616.1
2018-Jan-31 00:00N 46°60' W 002°58'816.5
2018-Jan-30 23:30N 46°60' W 003°10'815.8
2018-Jan-30 22:58N 47°01' W 003°22'816.1
2018-Jan-30 22:30N 47°05' W 003°32'1615.9
2018-Jan-30 21:30N 47°14' W 003°51'1015.8
2018-Jan-30 20:54N 47°19' W 004°03'615.7
2018-Jan-30 20:30N 47°23' W 004°10'1115.6
2018-Jan-30 19:48N 47°29' W 004°24'915.9
2018-Jan-30 19:14N 47°34' W 004°35'415.8
2018-Jan-30 18:59N 47°36' W 004°40'816.3
2018-Jan-30 18:30N 47°40' W 004°49'816.9
2018-Jan-30 18:00N 47°45' W 004°60'917.2
2018-Jan-30 17:31N 47°50' W 005°10'917.6
2018-Jan-30 17:00N 47°55' W 005°21'1817.3
2018-Jan-30 15:58N 48°09' W 005°37'1717.0
2018-Jan-30 14:58N 48°24' W 005°51'4212.0
2018-Jan-30 11:30N 49°01' W 005°25'5815.3
2018-Jan-30 07:41N 49°31' W 004°08'315.5
2018-Jan-30 07:28N 49°33' W 004°04'1014.9
2018-Jan-30 06:47N 49°38' W 003°50'614.5
2018-Jan-30 06:20N 49°41' W 003°42'514.1
2018-Jan-30 06:00N 49°44' W 003°35'713.8
2018-Jan-30 05:30N 49°47' W 003°26'713.5
2018-Jan-30 05:00N 49°50' W 003°17'713.5
2018-Jan-30 04:28N 49°54' W 003°07'613.8
2018-Jan-30 04:00N 49°57' W 002°59'714.2
2018-Jan-30 03:31N 49°60' W 002°48'714.7
2018-Jan-30 03:00N 50°01' W 002°37'815.6
2018-Jan-30 02:31N 50°03' W 002°25'916.5
2018-Jan-30 01:58N 50°01' W 002°11'817.5
2018-Jan-30 01:30N 49°59' W 001°59'918.2
2018-Jan-30 01:00N 49°57' W 001°45'918.3
2018-Jan-30 00:30N 49°54' W 001°32'918.7
2018-Jan-30 00:00N 49°51' W 001°19'918.8
2018-Jan-29 23:30N 49°47' W 001°05'917.6
2018-Jan-29 23:00N 49°44' W 000°52'816.5
2018-Jan-29 22:30N 49°41' W 000°41'815.7
2018-Jan-29 22:00N 49°38' W 000°30'815.2
2018-Jan-29 21:30N 49°35' W 000°19'714.6
2018-Jan-29 21:00N 49°32' W 000°08'611.9
2018-Jan-29 20:30N 49°30' E 000°00'611.7
2018-Jan-29 20:00N 49°28' E 000°08'1 2.7
2018-Jan-29 19:30N 49°27' E 000°10'0 0.0
2018-Jan-29 18:58N 49°27' E 000°10'0 0.0
2018-Jan-29 18:28N 49°27' E 000°10'0 0.0
2018-Jan-29 17:58N 49°27' E 000°10'0 0.0
2018-Jan-29 17:27N 49°27' E 000°10'0 0.0
2018-Jan-29 17:00N 49°27' E 000°10'0 0.0
2018-Jan-29 16:30N 49°27' E 000°10'0 0.0
2018-Jan-29 16:00N 49°27' E 000°10'0 0.0
2018-Jan-29 15:29N 49°27' E 000°10'0 0.0
2018-Jan-29 15:00N 49°27' E 000°10'0 0.0
2018-Jan-29 14:29N 49°27' E 000°10'0 0.0
2018-Jan-29 14:00N 49°27' E 000°10'0 0.0
2018-Jan-29 13:29N 49°27' E 000°10'0 0.0
2018-Jan-29 13:00N 49°27' E 000°10'0 0.0
2018-Jan-29 12:28N 49°27' E 000°10'0 0.0
2018-Jan-29 12:00N 49°27' E 000°10'0 0.0
2018-Jan-29 11:29N 49°27' E 000°10'0 0.0
2018-Jan-29 10:59N 49°27' E 000°10'0 0.0
2018-Jan-29 10:29N 49°27' E 000°10'0 0.0
2018-Jan-29 09:58N 49°27' E 000°10'0 0.0
2018-Jan-29 09:28N 49°27' E 000°10'0 0.0
2018-Jan-29 08:58N 49°27' E 000°10'0 0.0
2018-Jan-29 08:30N 49°27' E 000°10'0 0.0
2018-Jan-29 08:00N 49°27' E 000°10'0 0.0
2018-Jan-29 07:30N 49°27' E 000°10'0 0.0
2018-Jan-29 07:00N 49°27' E 000°10'0 0.0
2018-Jan-29 06:30N 49°27' E 000°10'0 0.0
2018-Jan-29 05:59N 49°27' E 000°10'0 0.0
2018-Jan-29 05:29N 49°27' E 000°10'0 0.0
2018-Jan-29 04:59N 49°27' E 000°10'0 0.0
2018-Jan-29 04:29N 49°27' E 000°10'0 0.0
2018-Jan-29 03:59N 49°27' E 000°10'0 0.0
2018-Jan-29 03:29N 49°27' E 000°10'0 0.0
2018-Jan-29 02:59N 49°27' E 000°10'0 0.0
2018-Jan-29 02:29N 49°27' E 000°10'0 0.0
2018-Jan-29 01:59N 49°27' E 000°10'0 0.0
2018-Jan-29 01:29N 49°27' E 000°10'0 0.0
2018-Jan-29 00:59N 49°27' E 000°10'0 0.0
2018-Jan-29 00:29N 49°27' E 000°10'0 0.0
2018-Jan-28 23:58N 49°27' E 000°10'1 2.6
2018-Jan-28 23:30N 49°27' E 000°09'5 9.2
2018-Jan-28 23:01N 49°30' E 000°02'612.1
2018-Jan-28 22:30N 49°31' W 000°07'3 5.9
2018-Jan-28 21:59N 49°33' W 000°10'0 0.2
2018-Jan-28 21:31N 49°33' W 000°10'0 0.1
2018-Jan-28 20:59N 49°33' W 000°10'0 0.0
2018-Jan-28 20:28N 49°33' W 000°10'0 0.0
2018-Jan-28 19:58N 49°33' W 000°10'0 0.0
2018-Jan-28 19:30N 49°33' W 000°10'0 0.1
2018-Jan-28 19:00N 49°33' W 000°10'0 0.0
2018-Jan-28 18:29N 49°33' W 000°10'0 0.0
2018-Jan-28 17:59N 49°33' W 000°10'0 0.0
2018-Jan-28 17:29N 49°33' W 000°10'0 0.0
2018-Jan-28 16:59N 49°33' W 000°10'0 0.0
2018-Jan-28 16:29N 49°33' W 000°10'0 0.0
2018-Jan-28 15:59N 49°33' W 000°10'0 0.0
2018-Jan-28 15:26N 49°33' W 000°10'0 0.1
2018-Jan-28 14:59N 49°33' W 000°10'0 0.0
2018-Jan-28 14:26N 49°33' W 000°10'0 0.1
2018-Jan-28 13:58N 49°33' W 000°10'0 0.0
2018-Jan-28 13:30N 49°33' W 000°10'0 0.2
2018-Jan-28 12:57N 49°33' W 000°10'0 0.1
2018-Jan-28 12:30N 49°33' W 000°10'0 0.0
2018-Jan-28 12:00N 49°33' W 000°10'0 0.2
2018-Jan-28 11:30N 49°33' W 000°10'0 0.0
2018-Jan-28 11:00N 49°33' W 000°10'0 0.1
2018-Jan-28 10:30N 49°33' W 000°10'0 0.0
2018-Jan-28 10:00N 49°33' W 000°10'0 0.0
2018-Jan-28 09:30N 49°33' W 000°10'0 0.1
2018-Jan-28 09:00N 49°33' W 000°10'0 0.0
2018-Jan-28 08:30N 49°33' W 000°10'0 0.1
2018-Jan-28 07:58N 49°33' W 000°10'0 0.0
2018-Jan-28 07:28N 49°33' W 000°10'0 0.0
2018-Jan-28 06:58N 49°33' W 000°10'0 0.0
2018-Jan-28 06:30N 49°33' W 000°10'1 1.6
2018-Jan-28 06:00N 49°34' W 000°09'4 7.8
2018-Jan-28 05:30N 49°35' W 000°15'3 6.3
2018-Jan-28 05:00N 49°38' W 000°14'4 8.2
2018-Jan-28 04:30N 49°42' W 000°12'4 8.3
2018-Jan-28 04:00N 49°46' W 000°10'4 8.7
2018-Jan-28 03:30N 49°51' W 000°09'4 8.7
2018-Jan-28 03:00N 49°55' W 000°09'5 9.0
2018-Jan-28 02:30N 49°59' W 000°08'611.1
2018-Jan-28 02:00N 50°05' W 000°07'714.6
2018-Jan-28 01:30N 50°12' W 000°05'  

Dump ship's entire track history